Time;durP1;ratioP1;P1;durP2;ratioP2;P2;SDS_P1;SDS_P2;PMS_P1;PMS_P2;Temp;Humidity;BMP_temperature;BMP_pressure;BME280_temperature;BME280_humidity;BME280_pressure;Samples;Min_cycle;Max_cycle;Signal;HPM_P1;HPM_P2
2022/12/07 00:01:11;;;;;;;7.25;1.90;;;4.00;99.90;;;;;;5083453;28;20082;-74
2022/12/07 00:03:39;;;;;;;6.93;2.00;;;4.10;99.90;;;;;;5074674;28;20056;-75
2022/12/07 00:06:06;;;;;;;7.65;2.00;;;4.10;99.90;;;;;;5074986;28;20054;-74
2022/12/07 00:08:33;;;;;;;7.80;2.10;;;4.20;99.90;;;;;;5074929;28;20485;-73
2022/12/07 00:11:08;;;;;;;5.45;1.40;;;4.20;99.90;;;;;;5058307;28;20048;-73
2022/12/07 00:13:35;;;;;;;7.70;1.60;;;4.30;99.90;;;;;;5058463;28;20056;-73
2022/12/07 00:16:12;;;;;;;9.13;2.28;;;4.40;99.90;;;;;;5058179;28;20090;-73
2022/12/07 00:18:39;;;;;;;9.00;1.50;;;4.50;99.90;;;;;;5075230;28;20055;-73
2022/12/07 00:21:08;;;;;;;7.38;1.50;;;4.60;99.90;;;;;;5074216;28;20128;-74
2022/12/07 00:23:34;;;;;;;5.20;1.50;;;4.60;99.90;;;;;;5075031;28;20178;-73
2022/12/07 00:26:08;;;;;;;5.45;1.08;;;4.60;99.90;;;;;;5058214;28;20133;-72
2022/12/07 00:28:34;;;;;;;7.97;1.38;;;4.60;99.90;;;;;;5058271;28;20091;-74
2022/12/07 00:31:02;;;;;;;8.48;1.30;;;4.50;99.90;;;;;;5074642;28;20094;-74
2022/12/07 00:33:28;;;;;;;7.32;1.40;;;4.50;99.90;;;;;;5074874;28;20089;-73
2022/12/07 00:35:58;;;;;;;3.22;0.80;;;4.50;99.90;;;;;;5058185;28;20048;-75
2022/12/07 00:38:24;;;;;;;6.22;1.38;;;4.40;99.90;;;;;;5058244;28;20550;-76
2022/12/07 00:40:58;;;;;;;7.25;1.23;;;4.70;99.90;;;;;;5057857;28;20044;-76
2022/12/07 00:43:25;;;;;;;2.75;1.05;;;4.50;99.90;;;;;;5058249;28;20059;-76
2022/12/07 00:45:51;;;;;;;4.20;1.10;;;3.60;99.90;;;;;;5058101;28;20052;-76
2022/12/07 00:48:17;;;;;;;5.78;0.82;;;4.40;99.90;;;;;;5057822;28;20047;-76
2022/12/07 00:50:43;;;;;;;4.45;0.90;;;4.50;99.90;;;;;;5074455;28;20185;-76
2022/12/07 00:53:09;;;;;;;6.50;0.73;;;4.60;99.90;;;;;;5025064;28;20398;-75
2022/12/07 00:55:36;;;;;;;3.88;0.80;;;5.30;99.90;;;;;;5041415;28;20059;-75
2022/12/07 00:58:02;;;;;;;3.47;0.60;;;4.60;99.90;;;;;;5057757;28;20424;-74
2022/12/07 01:00:28;;;;;;;4.05;0.80;;;4.70;99.90;;;;;;5057344;28;20094;-74
2022/12/07 01:02:54;;;;;;;6.80;0.88;;;4.80;99.90;;;;;;5057784;28;20397;-75
2022/12/07 01:05:20;;;;;;;4.68;0.80;;;4.80;99.90;;;;;;5057760;28;20136;-75
2022/12/07 01:07:47;;;;;;;6.70;0.98;;;4.90;99.90;;;;;;5041335;28;20194;-74
2022/12/07 01:10:14;;;;;;;4.38;0.70;;;4.90;99.90;;;;;;5074368;28;20070;-74
2022/12/07 01:12:40;;;;;;;3.60;0.80;;;4.90;99.90;;;;;;5074226;28;20375;-74
2022/12/07 01:15:07;;;;;;;2.67;0.50;;;4.90;99.90;;;;;;5058150;28;20055;-74
2022/12/07 01:17:34;;;;;;;2.78;0.50;;;4.90;99.90;;;;;;5061798;28;20052;-75
2022/12/07 01:20:00;;;;;;;4.07;0.80;;;4.90;99.90;;;;;;5061326;28;20109;-75
2022/12/07 01:22:27;;;;;;;2.92;0.70;;;4.90;99.90;;;;;;5077860;28;20063;-75
2022/12/07 01:24:53;;;;;;;9.18;0.80;;;4.90;99.90;;;;;;5044894;28;20548;-75
2022/12/07 01:27:18;;;;;;;6.78;0.90;;;4.90;99.90;;;;;;5044395;28;20074;-75
2022/12/07 01:29:44;;;;;;;2.78;0.80;;;5.00;99.90;;;;;;5061481;28;20470;-76
2022/12/07 01:32:10;;;;;;;6.30;0.70;;;5.00;99.90;;;;;;5077786;28;20055;-75
2022/12/07 01:34:36;;;;;;;5.20;0.80;;;5.00;99.90;;;;;;5078042;28;20096;-75
2022/12/07 01:37:02;;;;;;;3.35;0.73;;;5.10;99.90;;;;;;5077289;28;20048;-75
2022/12/07 01:39:28;;;;;;;7.00;1.00;;;5.10;99.90;;;;;;5077506;28;20500;-74
2022/12/07 01:41:54;;;;;;;6.20;0.70;;;5.20;99.90;;;;;;5077446;28;20509;-75
2022/12/07 01:44:23;;;;;;;7.75;0.90;;;5.90;99.90;;;;;;5044279;28;20044;-75
2022/12/07 01:46:57;;;;;;;4.88;0.88;;;5.20;99.90;;;;;;5061310;28;20059;-75
2022/12/07 01:49:42;;;;;;;8.48;1.02;;;5.20;99.90;;;;;;5077601;28;20048;-75
2022/12/07 01:52:24;;;;;;;7.00;0.80;;;5.20;99.90;;;;;;5061096;28;20660;-73
2022/12/07 01:54:51;;;;;;;;;;;5.80;99.90;;;;;;5078004;28;20051;-75
2022/12/07 01:57:17;;;;;;;5.32;0.80;;;6.10;99.90;;;;;;5060712;28;20054;-74
2022/12/07 01:59:45;;;;;;;6.68;0.65;;;5.30;99.90;;;;;;5044110;28;20040;-72
2022/12/07 02:02:23;;;;;;;3.85;1.35;;;5.20;99.90;;;;;;5077010;28;20498;-73
2022/12/07 02:04:50;;;;;;;3.20;0.77;;;5.20;99.90;;;;;;5077497;28;20044;-74
2022/12/07 02:07:17;;;;;;;6.85;1.10;;;4.30;99.90;;;;;;5060521;28;20048;-73
2022/12/07 02:09:43;;;;;;;3.72;0.70;;;5.30;99.90;;;;;;5060695;28;20052;-73
2022/12/07 02:12:09;;;;;;;6.53;0.73;;;5.30;99.90;;;;;;5060759;28;20051;-74
2022/12/07 02:14:35;;;;;;;5.63;0.80;;;5.30;99.90;;;;;;5060448;28;20048;-74
2022/12/07 02:17:34;;;;;;;3.50;0.50;;;5.30;99.90;;;;;;5060559;28;20048;-75
2022/12/07 02:20:15;;;;;;;6.30;0.70;;;5.20;99.90;;;;;;5060012;28;20048;-75
2022/12/07 02:23:29;;;;;;;3.47;0.75;;;5.20;99.90;;;;;;5060512;28;20052;-75
2022/12/07 02:26:02;;;;;;;4.53;0.65;;;5.10;99.90;;;;;;5060405;28;20509;-75
2022/12/07 02:28:53;;;;;;;4.50;0.70;;;5.00;99.90;;;;;;5059295;28;20047;-75
2022/12/07 02:31:21;;;;;;;3.88;0.63;;;4.90;99.90;;;;;;5060012;28;20533;-75
2022/12/07 02:33:57;;;;;;;2.15;0.60;;;4.80;99.90;;;;;;5059933;28;20520;-75
2022/12/07 02:36:30;;;;;;;4.38;1.15;;;4.70;99.90;;;;;;5076466;28;20048;-75
2022/12/07 02:39:04;;;;;;;3.65;0.73;;;4.60;99.90;;;;;;5060147;28;20079;-75
2022/12/07 02:41:55;;;;;;;4.00;0.50;;;4.50;99.90;;;;;;5076241;28;20044;-75
2022/12/07 02:44:25;;;;;;;7.15;0.95;;;4.40;99.90;;;;;;5060009;28;20044;-76
2022/12/07 02:46:57;;;;;;;4.88;0.57;;;4.30;99.90;;;;;;5076286;28;20048;-75
2022/12/07 02:49:25;;;;;;;4.68;0.80;;;4.30;99.90;;;;;;5059810;28;20058;-75
2022/12/07 02:51:53;;;;;;;6.47;0.73;;;4.20;99.90;;;;;;5076448;28;20138;-76
2022/12/07 02:54:20;;;;;;;4.38;1.08;;;4.10;99.90;;;;;;5059310;28;20047;-77
2022/12/07 02:56:56;;;;;;;3.38;0.55;;;4.10;99.90;;;;;;5059757;28;20036;-75
2022/12/07 03:00:06;;;;;;;5.40;1.02;;;4.10;99.90;;;;;;5076161;28;20055;-74
2022/12/07 03:02:54;;;;;;;6.47;0.65;;;4.10;99.90;;;;;;5070932;28;20573;-74
2022/12/07 03:05:22;;;;;;;3.50;0.65;;;4.20;99.90;;;;;;5076251;28;20051;-76
2022/12/07 03:08:01;;;;;;;6.90;1.00;;;4.20;99.90;;;;;;5075993;28;20051;-75
2022/12/07 03:10:45;;;;;;;3.80;0.50;;;4.20;99.90;;;;;;5075596;28;20142;-73
2022/12/07 03:13:49;;;;;;;4.72;0.57;;;4.30;99.90;;;;;;5059065;28;20044;-74
2022/12/07 03:16:16;;;;;;;6.63;0.93;;;4.30;99.90;;;;;;5075636;28;20088;-74
2022/12/07 03:18:58;;;;;;;4.07;0.60;;;4.40;99.90;;;;;;5058824;28;20064;-74
2022/12/07 03:21:31;;;;;;;3.45;0.52;;;4.40;99.90;;;;;;5075238;28;20497;-75
2022/12/07 03:24:00;;;;;;;3.35;0.60;;;4.40;99.90;;;;;;5075518;28;20040;-75
2022/12/07 03:26:32;;;;;;;6.03;0.75;;;4.40;99.90;;;;;;5058690;28;20138;-75
2022/12/07 03:29:02;;;;;;;7.07;0.80;;;4.50;99.90;;;;;;5058858;28;20044;-77
2022/12/07 03:31:35;;;;;;;4.40;0.60;;;4.60;99.90;;;;;;5058630;28;20055;-77
2022/12/07 03:34:24;;;;;;;5.32;0.52;;;5.20;99.90;;;;;;5075150;28;20177;-77
2022/12/07 03:37:06;;;;;;;8.27;0.70;;;4.60;99.90;;;;;;5058877;28;20059;-76
2022/12/07 03:39:49;;;;;;;7.50;0.73;;;4.60;99.90;;;;;;5058447;28;20052;-76
2022/12/07 03:42:15;;;;;;;5.97;0.82;;;4.50;99.90;;;;;;5075320;28;20048;-75
2022/12/07 03:44:42;;;;;;;2.97;0.52;;;4.50;99.90;;;;;;5074782;28;20048;-75
2022/12/07 03:47:23;;;;;;;5.82;0.70;;;5.30;99.90;;;;;;5058532;28;20056;-75
2022/12/07 03:49:59;;;;;;;4.03;0.73;;;4.50;99.90;;;;;;5058316;28;20044;-74
2022/12/07 03:52:48;;;;;;;4.18;0.70;;;4.40;99.90;;;;;;5058417;28;20350;-74
2022/12/07 03:55:27;;;;;;;6.93;0.93;;;4.40;99.90;;;;;;5073721;28;20081;-74
2022/12/07 03:57:59;;;;;;;5.60;0.73;;;4.60;99.90;;;;;;5075043;28;20587;-74
2022/12/07 04:00:25;;;;;;;2.88;0.57;;;4.40;99.90;;;;;;5054658;28;20048;-75
2022/12/07 04:02:53;;;;;;;8.80;1.00;;;4.40;99.90;;;;;;5038034;28;20515;-75
2022/12/07 04:05:19;;;;;;;5.70;0.80;;;4.40;99.90;;;;;;5071340;28;20049;-76
2022/12/07 04:07:45;;;;;;;3.60;0.65;;;4.50;99.90;;;;;;5054408;28;20131;-76
2022/12/07 04:10:11;;;;;;;6.22;0.73;;;4.50;99.90;;;;;;5054893;28;20133;-75
2022/12/07 04:12:37;;;;;;;5.25;0.55;;;4.50;99.90;;;;;;5054700;28;20561;-75
2022/12/07 04:15:04;;;;;;;5.05;0.65;;;4.50;99.90;;;;;;5054794;28;20151;-75
2022/12/07 04:17:30;;;;;;;5.05;0.82;;;4.50;99.90;;;;;;5071451;28;20048;-76
2022/12/07 04:19:56;;;;;;;3.45;0.80;;;4.40;99.90;;;;;;5054646;28;20202;-76
2022/12/07 04:22:22;;;;;;;1.95;0.40;;;4.40;99.90;;;;;;5054691;28;20040;-75
2022/12/07 04:24:48;;;;;;;4.00;0.57;;;5.10;99.90;;;;;;5037787;28;20056;-75
2022/12/07 04:27:14;;;;;;;3.25;0.40;;;4.20;99.90;;;;;;5038099;28;20048;-76
2022/12/07 04:29:40;;;;;;;6.88;0.50;;;4.10;99.90;;;;;;5054303;28;20097;-75
2022/12/07 04:32:06;;;;;;;7.22;0.90;;;4.10;99.90;;;;;;5038175;28;20045;-75
2022/12/07 04:34:31;;;;;;;3.72;0.40;;;4.00;99.90;;;;;;5054627;28;20044;-75
2022/12/07 04:36:57;;;;;;;6.05;0.60;;;4.00;99.90;;;;;;5054509;28;20441;-77
2022/12/07 04:39:29;;;;;;;4.38;0.55;;;3.90;99.90;;;;;;5037922;28;20459;-76
2022/12/07 04:41:55;;;;;;;6.13;0.55;;;3.90;99.90;;;;;;4702777;28;10000094;-75
2022/12/07 04:44:24;;;;;;;7.97;0.95;;;4.00;99.90;;;;;;5052559;28;20448;-75
2022/12/07 04:46:51;;;;;;;3.95;0.85;;;4.00;99.90;;;;;;5052142;28;20131;-77
2022/12/07 04:49:18;;;;;;;3.17;0.95;;;4.60;99.90;;;;;;5069048;28;20052;-77
2022/12/07 04:51:45;;;;;;;3.80;0.40;;;4.10;99.90;;;;;;5071791;28;20131;-77
2022/12/07 04:54:12;;;;;;;5.60;0.50;;;4.20;99.90;;;;;;5065386;28;20048;-79
2022/12/07 04:56:38;;;;;;;4.40;0.50;;;4.20;99.90;;;;;;5035899;28;20087;-77
2022/12/07 04:59:04;;;;;;;3.65;0.50;;;4.30;99.90;;;;;;5036244;28;20057;-75
2022/12/07 05:01:31;;;;;;;1.90;0.43;;;4.30;99.90;;;;;;5041457;28;20069;-76
2022/12/07 05:03:57;;;;;;;3.47;0.60;;;4.30;99.90;;;;;;5015387;28;20071;-77
2022/12/07 05:06:23;;;;;;;4.65;0.70;;;4.40;99.90;;;;;;4998907;28;20539;-76
2022/12/07 05:08:49;;;;;;;8.40;0.90;;;4.40;99.90;;;;;;5015814;28;20136;-78
2022/12/07 05:14:01;;;;;;;4.43;0.50;;;4.40;99.90;;;;;;5031804;28;20064;-76
2022/12/07 05:16:27;;;;;;;4.05;0.50;;;4.40;99.90;;;;;;5015025;28;20057;-77
2022/12/07 05:18:53;;;;;;;5.35;0.60;;;4.40;99.90;;;;;;5015479;28;20042;-76
2022/12/07 05:21:19;;;;;;;8.43;0.70;;;4.80;99.90;;;;;;5032233;28;20605;-75
2022/12/07 05:23:45;;;;;;;2.70;0.68;;;4.30;99.90;;;;;;5015500;28;20054;-76
2022/12/07 05:26:11;;;;;;;6.80;0.95;;;4.30;99.90;;;;;;4999553;28;20403;-75
2022/12/07 05:28:37;;;;;;;4.60;0.70;;;4.10;99.90;;;;;;5017975;28;20053;-75
2022/12/07 05:31:03;;;;;;;7.85;0.90;;;4.10;99.90;;;;;;5001713;28;20482;-76
2022/12/07 05:33:29;;;;;;;6.53;0.80;;;3.90;99.90;;;;;;5035535;28;20115;-76
2022/12/07 05:35:55;;;;;;;6.95;0.70;;;3.90;99.90;;;;;;5017495;28;20430;-76
2022/12/07 05:38:21;;;;;;;7.65;1.13;;;3.80;99.90;;;;;;5034457;28;20044;-76
2022/12/07 05:40:47;;;;;;;3.03;0.70;;;3.80;99.90;;;;;;5000947;28;20041;-76
2022/12/07 05:43:13;;;;;;;4.50;0.60;;;3.70;99.90;;;;;;5001572;28;20053;-76
2022/12/07 05:45:43;;;;;;;8.40;0.57;;;3.70;99.90;;;;;;5034126;28;20060;-76
2022/12/07 05:48:09;;;;;;;0.88;0.30;;;3.60;99.90;;;;;;5034347;28;20057;-76
2022/12/07 05:50:35;;;;;;;4.80;0.68;;;3.60;99.90;;;;;;5017599;28;20424;-76
2022/12/07 05:53:01;;;;;;;8.35;0.90;;;3.60;99.90;;;;;;5017099;28;20554;-76
2022/12/07 05:55:27;;;;;;;4.97;0.60;;;3.60;99.90;;;;;;5017489;28;20404;-76
2022/12/07 06:00:37;;;;;;;5.53;0.77;;;3.60;99.90;;;;;;5026107;28;20067;-76
2022/12/07 06:03:03;;;;;;;1.80;0.60;;;3.70;99.90;;;;;;5022737;28;20044;-76
2022/12/07 06:05:29;;;;;;;2.08;0.50;;;3.70;99.90;;;;;;5040140;28;20091;-76
2022/12/07 06:07:55;;;;;;;5.20;0.65;;;3.80;99.90;;;;;;5040217;28;20044;-76
2022/12/07 06:10:21;;;;;;;4.82;0.77;;;3.90;99.90;;;;;;5024085;28;20127;-76
2022/12/07 06:12:47;;;;;;;2.35;0.70;;;4.00;99.90;;;;;;5056994;28;20041;-76
2022/12/07 06:15:13;;;;;;;8.95;0.60;;;4.70;99.90;;;;;;5056468;28;20132;-76
2022/12/07 06:17:39;;;;;;;6.15;1.00;;;4.00;99.90;;;;;;5056658;28;20645;-76
2022/12/07 06:20:06;;;;;;;7.13;0.63;;;4.10;99.90;;;;;;5023269;28;20036;-76
2022/12/07 06:22:32;;;;;;;6.57;0.70;;;4.10;99.90;;;;;;5040199;28;20127;-76
2022/12/07 06:24:58;;;;;;;4.93;0.70;;;4.10;99.90;;;;;;5039855;28;20190;-75
2022/12/07 06:27:24;;;;;;;4.00;0.75;;;4.00;99.90;;;;;;5040072;28;20048;-76
2022/12/07 06:29:50;;;;;;;6.95;1.00;;;4.00;99.90;;;;;;5039743;28;20082;-76
2022/12/07 06:32:16;;;;;;;5.45;1.17;;;3.90;99.90;;;;;;5039570;28;20131;-75
2022/12/07 06:34:42;;;;;;;5.18;1.10;;;3.90;99.90;;;;;;5040099;28;20044;-75
2022/12/07 06:37:08;;;;;;;6.47;1.00;;;3.90;99.90;;;;;;5056055;28;20508;-76
2022/12/07 06:39:33;;;;;;;10.18;1.10;;;4.00;99.90;;;;;;5023390;28;20140;-76
2022/12/07 06:41:59;;;;;;;8.10;1.02;;;4.00;99.90;;;;;;5023138;28;20071;-76
2022/12/07 06:44:25;;;;;;;4.75;0.60;;;4.10;99.90;;;;;;5039473;28;20063;-76
2022/12/07 06:46:52;;;;;;;4.13;0.95;;;4.10;99.90;;;;;;5056429;28;20134;-76
2022/12/07 06:49:18;;;;;;;3.28;0.80;;;4.10;99.90;;;;;;5073655;28;20133;-76
2022/12/07 06:51:44;;;;;;;6.45;0.88;;;4.10;99.90;;;;;;5056192;28;20136;-76
2022/12/07 06:54:11;;;;;;;7.32;0.90;;;4.00;99.90;;;;;;5039005;28;20048;-76
2022/12/07 06:56:37;;;;;;;8.68;1.45;;;3.90;99.90;;;;;;5039208;28;20049;-75
2022/12/07 06:59:06;;;;;;;4.15;1.10;;;3.90;99.90;;;;;;5022840;28;20051;-74
2022/12/07 07:01:33;;;;;;;9.38;2.35;;;3.90;99.90;;;;;;5055269;28;20052;-75
2022/12/07 07:04:00;;;;;;;4.78;0.98;;;3.80;99.90;;;;;;5038805;28;20107;-75
2022/12/07 07:06:26;;;;;;;11.27;1.67;;;3.70;99.90;;;;;;5023065;28;20048;-77
2022/12/07 07:08:52;;;;;;;3.25;0.85;;;3.70;99.90;;;;;;5055919;28;20047;-77
2022/12/07 07:11:18;;;;;;;8.32;0.95;;;3.60;99.90;;;;;;5038906;28;20480;-77
2022/12/07 07:13:45;;;;;;;8.00;1.13;;;3.50;99.90;;;;;;5054790;28;20048;-77
2022/12/07 07:16:11;;;;;;;10.07;1.20;;;3.50;99.90;;;;;;5054785;28;20109;-77
2022/12/07 07:18:37;;;;;;;9.98;1.90;;;3.80;99.90;;;;;;5021913;28;20486;-77
2022/12/07 07:21:03;;;;;;;6.10;1.20;;;3.30;99.90;;;;;;5037733;28;20455;-76
2022/12/07 07:23:29;;;;;;;7.50;1.58;;;3.30;99.90;;;;;;5038639;28;20135;-76
2022/12/07 07:25:55;;;;;;;10.23;1.20;;;3.20;99.90;;;;;;5038989;28;20182;-76
2022/12/07 07:28:21;;;;;;;5.25;1.10;;;3.20;99.90;;;;;;5055362;28;20052;-77
2022/12/07 07:30:47;;;;;;;5.93;1.48;;;3.20;99.90;;;;;;5073142;28;20040;-77
2022/12/07 07:33:13;;;;;;;7.28;1.10;;;3.20;99.90;;;;;;5038610;28;20079;-75
2022/12/07 07:35:39;;;;;;;8.57;1.15;;;3.20;99.90;;;;;;5039042;28;20052;-76
2022/12/07 07:38:05;;;;;;;4.88;1.15;;;3.20;99.90;;;;;;5038869;28;20145;-75
2022/12/07 07:40:32;;;;;;;9.57;1.50;;;3.30;99.90;;;;;;5055142;28;20547;-76
2022/12/07 07:42:58;;;;;;;6.68;1.42;;;3.40;99.90;;;;;;5038896;28;20056;-76
2022/12/07 07:45:25;;;;;;;7.05;1.35;;;3.00;99.90;;;;;;5072685;28;20499;-76
2022/12/07 07:47:51;;;;;;;5.97;1.08;;;3.50;99.90;;;;;;5055183;28;20044;-76
2022/12/07 07:50:18;;;;;;;3.83;0.60;;;3.60;99.90;;;;;;5021473;28;20394;-76
2022/12/07 07:52:45;;;;;;;3.08;0.85;;;3.60;99.90;;;;;;5038661;28;20063;-75
2022/12/07 07:55:11;;;;;;;5.28;0.95;;;3.70;99.90;;;;;;5022031;28;20055;-75
2022/12/07 07:57:38;;;;;;;9.63;1.13;;;3.70;99.90;;;;;;5038670;28;20048;-75
2022/12/07 08:00:09;;;;;;;4.18;0.90;;;3.80;99.90;;;;;;5038304;28;20045;-75
2022/12/07 08:02:35;;;;;;;6.85;0.70;;;3.90;99.90;;;;;;5037766;28;20088;-75
2022/12/07 08:05:02;;;;;;;5.03;0.80;;;3.20;99.90;;;;;;5038321;28;20052;-76
2022/12/07 08:07:28;;;;;;;6.15;1.00;;;4.00;99.90;;;;;;5038153;28;20049;-75
2022/12/07 08:09:54;;;;;;;3.92;0.77;;;4.00;99.90;;;;;;5038383;28;20080;-77
2022/12/07 08:12:20;;;;;;;8.18;0.98;;;4.10;99.90;;;;;;5038013;28;20083;-77
2022/12/07 08:14:46;;;;;;;4.57;1.05;;;4.10;99.90;;;;;;5022121;28;20135;-76
2022/12/07 08:17:12;;;;;;;6.07;1.35;;;4.20;99.90;;;;;;5054635;28;20044;-77
2022/12/07 08:19:38;;;;;;;3.50;0.57;;;4.30;99.90;;;;;;5037933;28;20037;-76
2022/12/07 08:22:04;;;;;;;4.82;0.88;;;4.40;99.90;;;;;;5021907;28;20048;-77
2022/12/07 08:24:33;;;;;;;4.15;0.85;;;4.40;99.90;;;;;;5021135;28;20218;-77
2022/12/07 08:26:59;;;;;;;5.60;0.80;;;4.40;99.90;;;;;;5054600;28;20048;-76
2022/12/07 08:29:25;;;;;;;5.65;0.68;;;4.40;99.90;;;;;;5038118;28;20124;-76
2022/12/07 08:31:51;;;;;;;5.40;0.90;;;4.50;99.90;;;;;;5037966;28;20498;-75
2022/12/07 08:34:17;;;;;;;8.48;1.05;;;4.60;99.90;;;;;;5037975;28;20505;-75
2022/12/07 08:36:43;;;;;;;6.68;1.02;;;4.50;99.90;;;;;;5054755;28;20118;-75
2022/12/07 08:39:09;;;;;;;4.85;1.20;;;4.50;99.90;;;;;;5021642;28;20052;-75
2022/12/07 08:41:35;;;;;;;4.25;1.13;;;4.50;99.90;;;;;;5037754;28;20494;-75
2022/12/07 08:44:01;;;;;;;4.97;1.02;;;4.60;99.90;;;;;;5021600;28;20045;-77
2022/12/07 08:46:37;;;;;;;6.88;1.17;;;4.60;99.90;;;;;;5054344;28;20053;-76
2022/12/07 08:49:11;;;;;;;5.82;0.95;;;4.70;99.90;;;;;;5037922;28;20364;-76
2022/12/07 08:51:38;;;;;;;6.55;0.73;;;4.80;99.90;;;;;;5054817;28;20056;-76
2022/12/07 08:54:07;;;;;;;5.57;0.95;;;4.90;99.90;;;;;;5038119;28;20053;-76
2022/12/07 08:56:34;;;;;;;5.97;1.02;;;4.90;99.90;;;;;;5037703;28;20048;-75
2022/12/07 08:59:00;;;;;;;6.07;1.13;;;4.90;99.90;;;;;;5037760;28;20410;-74
2022/12/07 09:01:26;;;;;;;5.22;0.98;;;5.00;99.90;;;;;;5017452;28;20064;-75
2022/12/07 09:03:53;;;;;;;10.35;1.20;;;5.00;99.90;;;;;;5051005;28;20057;-75
2022/12/07 09:06:19;;;;;;;8.20;1.00;;;5.00;99.90;;;;;;5034332;28;20088;-75
2022/12/07 09:08:49;;;;;;;6.80;1.23;;;5.00;99.90;;;;;;5051231;28;20041;-76
2022/12/07 09:11:15;;;;;;;7.18;1.30;;;5.00;99.90;;;;;;5034576;28;20487;-79
2022/12/07 09:13:41;;;;;;;7.45;1.30;;;4.90;99.90;;;;;;5051354;28;20044;-76
2022/12/07 09:16:07;;;;;;;5.85;1.10;;;4.90;99.90;;;;;;5018116;28;20045;-76
2022/12/07 09:18:33;;;;;;;6.57;1.25;;;4.90;99.90;;;;;;5050855;28;20133;-76
2022/12/07 09:20:59;;;;;;;8.02;0.98;;;4.90;99.90;;;;;;5034214;28;20095;-75
2022/12/07 09:23:25;;;;;;;9.60;1.33;;;5.00;99.90;;;;;;5017902;28;20048;-77
2022/12/07 09:25:51;;;;;;;9.15;1.92;;;5.20;99.90;;;;;;5034279;28;20047;-76
2022/12/07 09:28:17;;;;;;;7.75;1.10;;;5.40;99.90;;;;;;5034540;28;20084;-76
2022/12/07 09:30:49;;;;;;;5.22;0.95;;;5.50;99.90;;;;;;5034213;28;20073;-76
2022/12/07 09:33:15;;;;;;;6.03;1.10;;;5.60;99.90;;;;;;5034634;28;20373;-76
2022/12/07 09:35:46;;;;;;;4.05;0.85;;;5.80;99.90;;;;;;5050674;28;20053;-77
2022/12/07 09:38:12;;;;;;;5.30;0.93;;;5.90;99.90;;;;;;5054654;28;20119;-76
2022/12/07 09:40:39;;;;;;;5.45;0.75;;;5.90;99.90;;;;;;5055281;28;20049;-74
2022/12/07 09:43:05;;;;;;;6.45;1.08;;;5.40;99.90;;;;;;5038036;28;20360;-76
2022/12/07 09:45:36;;;;;;;5.60;0.75;;;6.20;99.90;;;;;;5020944;28;20052;-76
2022/12/07 09:48:08;;;;;;;12.60;1.05;;;6.30;99.90;;;;;;5054423;28;20055;-77
2022/12/07 09:50:34;;;;;;;5.18;0.80;;;6.40;99.90;;;;;;5054242;28;20056;-76
2022/12/07 09:53:11;;;;;;;4.38;0.82;;;6.40;99.90;;;;;;5054362;28;20140;-76
2022/12/07 09:55:40;;;;;;;5.60;1.05;;;6.40;99.90;;;;;;5037548;28;20140;-76
2022/12/07 09:58:06;;;;;;;7.15;0.90;;;6.50;99.90;;;;;;5037620;28;20049;-75
2022/12/07 10:00:32;;;;;;;7.13;1.00;;;6.60;99.90;;;;;;5037392;28;20052;-75
2022/12/07 10:03:01;;;;;;;4.72;1.00;;;6.70;99.90;;;;;;5075028;28;20419;-75
2022/12/07 10:05:26;;;;;;;4.95;1.10;;;6.80;99.90;;;;;;5040163;28;20182;-76
2022/12/07 10:07:52;;;;;;;6.97;1.00;;;6.80;99.90;;;;;;5040583;28;20131;-75
2022/12/07 10:10:27;;;;;;;6.28;1.10;;;6.70;99.90;;;;;;5074615;28;20076;-75
2022/12/07 10:13:04;;;;;;;8.70;1.00;;;6.70;99.90;;;;;;5057047;28;20053;-75
2022/12/07 10:16:02;;;;;;;6.82;1.02;;;6.60;99.90;;;;;;5040219;28;20063;-76
2022/12/07 10:18:43;;;;;;;10.18;1.15;;;6.70;99.90;;;;;;5056976;28;20101;-76
2022/12/07 10:21:23;;;;;;;10.63;0.90;;;6.70;99.90;;;;;;5056882;28;20055;-76
2022/12/07 10:24:01;;;;;;;4.38;1.00;;;6.80;99.90;;;;;;5074739;28;20545;-74
2022/12/07 10:26:40;;;;;;;5.53;0.75;;;6.80;99.90;;;;;;5056605;28;20044;-74
2022/12/07 10:29:26;;;;;;;4.32;0.95;;;6.90;99.90;;;;;;5074391;28;20040;-76
2022/12/07 10:32:01;;;;;;;10.43;1.30;;;6.90;99.90;;;;;;5056634;28;20490;-76
2022/12/07 10:34:32;;;;;;;5.13;0.93;;;7.00;99.90;;;;;;5039782;28;20509;-75
2022/12/07 10:37:15;;;;;;;4.68;1.05;;;7.00;99.90;;;;;;5040050;28;20118;-76
2022/12/07 10:39:49;;;;;;;8.13;1.00;;;7.00;99.90;;;;;;5056143;28;20064;-75
2022/12/07 10:42:19;;;;;;;7.22;1.27;;;7.10;99.90;;;;;;5039794;28;20482;-76
2022/12/07 10:44:46;;;;;;;6.45;1.08;;;7.20;99.90;;;;;;5039560;28;20496;-77
2022/12/07 10:47:45;;;;;;;5.07;1.13;;;7.20;99.90;;;;;;5039849;28;20047;-76
2022/12/07 10:50:17;;;;;;;5.40;1.13;;;7.20;99.90;;;;;;5039888;28;20045;-76
2022/12/07 10:52:49;;;;;;;7.20;0.80;;;7.20;99.90;;;;;;5056313;28;20051;-76
2022/12/07 10:55:44;;;;;;;8.85;1.00;;;7.10;99.90;;;;;;5039916;28;20045;-76
2022/12/07 10:58:19;;;;;;;3.33;0.60;;;7.10;99.90;;;;;;5039767;28;20060;-76
2022/12/07 11:00:56;;;;;;;7.22;0.80;;;7.10;99.90;;;;;;5038716;28;20492;-76
2022/12/07 11:03:31;;;;;;;7.80;0.90;;;7.00;99.90;;;;;;5055995;28;20056;-76
2022/12/07 11:06:22;;;;;;;4.32;0.80;;;7.00;99.90;;;;;;5039459;28;20040;-76
2022/12/07 11:09:26;;;;;;;6.22;0.90;;;7.00;99.90;;;;;;5039495;28;20105;-76
2022/12/07 11:12:17;;;;;;;6.07;0.60;;;6.80;99.90;;;;;;5039385;28;20723;-75
2022/12/07 11:14:49;;;;;;;;;;;7.30;99.90;;;;;;5055351;28;20366;-75
2022/12/07 11:17:45;;;;;;;7.43;0.60;;;7.40;99.90;;;;;;5037782;28;19929;-76
2022/12/07 11:20:36;;;;;;;5.75;0.80;;;7.50;99.90;;;;;;5039324;28;20051;-76
2022/12/07 11:23:26;;;;;;;6.22;0.70;;;7.80;99.90;;;;;;5039317;28;20053;-75
2022/12/07 11:26:34;;;;;;;3.70;0.60;;;8.00;99.90;;;;;;5038899;28;20056;-75
2022/12/07 11:29:19;;;;;;;7.45;1.40;;;8.40;99.90;;;;;;5039064;28;20044;-75
2022/12/07 11:31:58;;;;;;;6.10;0.70;;;8.40;99.90;;;;;;5040404;28;20049;-77
2022/12/07 11:35:06;;;;;;;6.30;1.00;;;8.40;99.90;;;;;;5058733;28;20062;-76
2022/12/07 11:37:37;;;;;;;3.38;0.85;;;8.50;99.90;;;;;;5075542;28;20098;-76
2022/12/07 11:40:14;;;;;;;4.22;0.82;;;8.60;99.90;;;;;;5058599;28;20047;-76
2022/12/07 11:42:48;;;;;;;5.65;0.90;;;8.90;99.90;;;;;;5074955;28;20390;-75
2022/12/07 11:45:28;;;;;;;7.30;0.95;;;9.00;99.90;;;;;;5058859;28;20048;-77
2022/12/07 11:48:04;;;;;;;6.85;0.90;;;9.00;99.90;;;;;;5058687;28;20113;-76
2022/12/07 11:50:46;;;;;;;7.45;1.02;;;9.30;99.90;;;;;;5058748;28;20101;-76
2022/12/07 11:53:22;;;;;;;4.03;0.80;;;9.50;99.90;;;;;;5075375;28;20114;-76
2022/12/07 11:56:04;;;;;;;6.45;0.80;;;9.60;99.90;;;;;;5074970;28;20044;-76
2022/12/07 11:58:48;;;;;;;7.30;0.85;;;9.30;99.90;;;;;;5058806;28;20048;-75
2022/12/07 12:01:20;;;;;;;6.07;0.73;;;8.90;99.90;;;;;;5089745;28;20501;-75
2022/12/07 12:03:53;;;;;;;;;;;8.60;99.90;;;;;;5058821;28;20048;-76
2022/12/07 12:06:21;;;;;;;4.85;1.00;;;8.30;99.90;;;;;;5092934;28;20388;-76
2022/12/07 12:09:15;;;;;;;7.15;1.15;;;8.20;99.90;;;;;;5058666;28;20075;-76
2022/12/07 12:11:59;;;;;;;4.85;1.00;;;7.90;99.90;;;;;;5075040;28;20044;-77
2022/12/07 12:15:00;;;;;;;6.63;1.00;;;7.70;99.90;;;;;;5058438;28;20060;-76
2022/12/07 12:17:52;;;;;;;5.05;0.70;;;7.50;99.90;;;;;;5058429;28;20052;-76
2022/12/07 12:20:56;;;;;;;7.68;1.10;;;7.30;99.90;;;;;;5058211;28;20123;-77
2022/12/07 12:23:57;;;;;;;4.63;1.15;;;7.10;99.90;;;;;;5071226;28;20120;-77
2022/12/07 12:26:29;;;;;;;4.00;0.98;;;7.00;99.90;;;;;;4975094;28;20553;-76
2022/12/07 12:29:02;;;;;;;8.80;1.70;;;7.00;99.90;;;;;;5058384;28;20109;-76
2022/12/07 12:31:32;;;;;;;5.40;1.15;;;6.90;99.90;;;;;;5058274;28;20086;-77
2022/12/07 12:34:00;;;;;;;2.30;0.77;;;6.80;99.90;;;;;;5074780;28;20048;-76
2022/12/07 12:36:38;;;;;;;4.90;1.50;;;6.70;99.90;;;;;;5058356;28;20040;-76
2022/12/07 12:39:15;;;;;;;3.55;1.38;;;6.60;99.90;;;;;;5057966;28;20040;-75
2022/12/07 12:44:19;;;;;;;4.00;0.77;;;6.40;99.90;;;;;;5074675;28;20052;-77
2022/12/07 12:46:57;;;;;;;4.20;1.15;;;6.30;99.90;;;;;;5058156;28;20051;-78
2022/12/07 12:49:23;;;;;;;6.32;1.00;;;6.20;99.90;;;;;;5074789;28;20066;-76
2022/12/07 12:51:57;;;;;;;6.47;1.10;;;6.60;99.90;;;;;;5057831;28;20410;-76
2022/12/07 12:54:32;;;;;;;7.00;1.83;;;7.30;99.90;;;;;;5092520;28;20048;-75
2022/12/07 12:57:33;;;;;;;3.95;1.00;;;7.90;99.90;;;;;;5057812;28;20044;-76
2022/12/07 13:00:15;;;;;;;6.97;0.93;;;8.00;99.90;;;;;;4958251;28;20046;-76
2022/12/07 13:02:53;;;;;;;4.05;1.10;;;7.70;99.90;;;;;;5048057;28;20060;-76
2022/12/07 13:05:27;;;;;;;5.75;1.52;;;7.50;99.90;;;;;;5054326;28;20102;-75
2022/12/07 13:07:54;;;;;;;6.53;1.10;;;7.30;99.90;;;;;;5070799;28;20545;-77
2022/12/07 13:10:20;;;;;;;5.97;0.80;;;7.10;99.90;;;;;;5054370;28;20092;-76
2022/12/07 13:13:24;;;;;;;4.60;0.90;;;6.90;99.90;;;;;;5041050;28;20086;-76
2022/12/07 13:16:08;;;;;;;3.25;1.65;;;6.80;99.90;;;;;;5057741;28;20429;-78
2022/12/07 13:18:37;;;;;;;3.97;0.80;;;6.60;99.90;;;;;;5055870;28;20474;-77
2022/12/07 13:21:06;;;;;;;2.92;0.80;;;6.60;99.90;;;;;;4709972;28;10000410;-77
2022/12/07 13:23:38;;;;;;;6.95;1.83;;;6.60;99.90;;;;;;5042658;28;20076;-76
2022/12/07 13:26:17;;;;;;;8.32;1.05;;;6.50;99.90;;;;;;5053196;28;20127;-77
2022/12/07 13:29:03;;;;;;;3.28;1.00;;;6.50;99.90;;;;;;5066244;28;20063;-76